Time;durP1;ratioP1;P1;durP2;ratioP2;P2;SDS_P1;SDS_P2;PMS_P1;PMS_P2;Temp;Humidity;BMP_temperature;BMP_pressure;BME280_temperature;BME280_humidity;BME280_pressure;Samples;Min_cycle;Max_cycle;Signal;HPM_P1;HPM_P2
2022/02/09 00:00:56;;;;;;;;;;;8.30;91.70;;;;;;5077653;28;19958;-85
2022/02/09 00:03:24;;;;;;;;;;;8.40;91.80;;;;;;5077864;28;20298;-86
2022/02/09 00:08:23;;;;;;;;;;;8.40;91.80;;;;;;5077620;28;19920;-86
2022/02/09 00:10:55;;;;;;;;;;;8.30;91.70;;;;;;5073398;28;19909;-86
2022/02/09 00:16:10;;;;;;;;;;;8.40;91.80;;;;;;5077500;28;19995;-86
2022/02/09 00:24:10;;;;;;;;;;;8.40;91.80;;;;;;5077755;28;19909;-84
2022/02/09 00:32:09;;;;;;;;;;;8.40;91.80;;;;;;5079813;28;19908;-84
2022/02/09 00:38:14;;;;;;;;;;;8.40;91.90;;;;;;5081604;28;19983;-84
2022/02/09 00:40:33;;;;;;;;;;;8.40;91.90;;;;;;5066827;28;20018;-85
2022/02/09 00:43:18;;;;;;;;;;;8.30;91.90;;;;;;5080946;28;19919;-85
2022/02/09 01:55:52;;;;;;;;;;;8.20;92.20;;;;;;5079615;28;19954;-85
2022/02/09 01:58:22;;;;;;;;;;;8.20;92.10;;;;;;5079828;28;19936;-85
2022/02/09 02:00:48;;;;;;;;;;;8.30;92.20;;;;;;5079755;28;19915;-85
2022/02/09 02:03:14;;;;;;;;;;;8.20;92.20;;;;;;5079703;28;19915;-85
2022/02/09 02:05:40;;;;;;;;;;;8.30;92.20;;;;;;5078462;28;19912;-86
2022/02/09 02:08:08;;;;;;;;;;;8.30;92.30;;;;;;5079554;28;19915;-86
2022/02/09 02:10:48;;;;;;;;;;;8.20;92.30;;;;;;5077322;28;19909;-84
2022/02/09 02:18:48;;;;;;;;;;;8.20;92.30;;;;;;5079341;28;20284;-86
2022/02/09 02:32:17;;;;;;;;;;;8.30;92.30;;;;;;5078959;28;19914;-86
2022/02/09 02:37:36;;;;;;;;;;;8.30;92.20;;;;;;5079032;28;19962;-84
2022/02/09 03:14:13;;;;;;;;;;;8.20;92.20;;;;;;5075604;28;19948;-88
2022/02/09 03:16:45;;;;;;;;;;;8.30;92.20;;;;;;5076703;28;19916;-87
2022/02/09 03:19:41;;;;;;;;;;;8.20;92.20;;;;;;5078099;28;20259;-87
2022/02/09 03:22:20;;;;;;;;;;;8.20;92.30;;;;;;5078025;28;19963;-86
2022/02/09 03:49:16;;;;;;;;;;;8.20;92.40;;;;;;5078134;28;19960;-86
2022/02/09 03:59:17;;;;;;;;;;;8.20;92.50;;;;;;5077722;28;19930;-86
2022/02/09 04:01:44;;;;;;;;;;;8.20;92.60;;;;;;5077652;28;20457;-86
2022/02/09 04:04:10;;;;;;;;;;;8.20;92.60;;;;;;5076303;28;19912;-86
2022/02/09 04:06:37;;;;;;;;;;;8.20;92.60;;;;;;5082403;28;19908;-86
2022/02/09 04:09:06;;;;;;;;;;;8.20;92.60;;;;;;5084147;28;19918;-86
2022/02/09 04:12:01;;;;;;;;;;;8.20;92.70;;;;;;5074431;28;20330;-86
2022/02/09 04:16:56;;;;;;;;;;;8.20;92.70;;;;;;5084047;28;19909;-84
2022/02/09 04:43:38;;;;;;;;;;;8.10;92.80;;;;;;5083965;28;19917;-85
2022/02/09 04:56:41;;;;;;;;;;;8.10;92.80;;;;;;5070078;28;21564;-85
2022/02/09 04:59:17;;;;;;;;;;;8.10;92.70;;;;;;5082474;28;19908;-85
2022/02/09 05:04:58;;;;;;;;;;;8.10;92.60;;;;;;5083869;28;19972;-85
2022/02/09 05:26:09;;;;;;;;;;;8.10;92.60;;;;;;5069460;28;19914;-86
2022/02/09 05:28:34;;;;;;;;;;;8.10;92.70;;;;;;5080208;28;19944;-84
2022/02/09 05:31:00;;;;;;;;;;;8.10;92.60;;;;;;5078805;28;19916;-85
2022/02/09 05:33:26;;;;;;;;;;;8.10;92.50;;;;;;5080170;28;20006;-85
2022/02/09 05:35:52;;;;;;;;;;;8.10;92.50;;;;;;5080408;28;19944;-85
2022/02/09 05:38:18;;;;;;;;;;;8.10;92.40;;;;;;5080099;28;19908;-85
2022/02/09 05:40:44;;;;;;;;;;;8.10;92.40;;;;;;5078788;28;19909;-87
2022/02/09 05:43:11;;;;;;;;;;;8.10;92.40;;;;;;5079840;28;19916;-85
2022/02/09 05:45:48;;;;;;;;;;;8.00;92.40;;;;;;5079715;28;19912;-85
2022/02/09 05:59:26;;;;;;;;;;;8.00;92.40;;;;;;5079768;28;19930;-86
2022/02/09 06:01:52;;;;;;;;;;;8.00;92.50;;;;;;5079670;28;19916;-86
2022/02/09 06:04:18;;;;;;;;;;;8.00;92.40;;;;;;5078334;28;20294;-86
2022/02/09 06:06:44;;;;;;;;;;;8.00;92.40;;;;;;5079883;28;20286;-86
2022/02/09 06:09:09;;;;;;;;;;;8.00;92.40;;;;;;5079330;28;20375;-87
2022/02/09 06:19:43;;;;;;;;;;;8.00;92.30;;;;;;5079705;28;20378;-87
2022/02/09 06:22:08;;;;;;;;;;;8.00;92.30;;;;;;5079188;28;19908;-87
2022/02/09 06:24:34;;;;;;;;;;;8.00;92.60;;;;;;5079450;28;19909;-88
2022/02/09 06:27:00;;;;;;;;;;;7.90;92.30;;;;;;5079235;28;20294;-87
2022/02/09 06:29:25;;;;;;;;;;;7.90;92.30;;;;;;5077806;28;19912;-87
2022/02/09 06:31:51;;;;;;;;;;;7.90;92.20;;;;;;5078740;28;20003;-87
2022/02/09 06:34:19;;;;;;;;;;;7.90;92.30;;;;;;5079467;28;19993;-87
2022/02/09 06:36:57;;;;;;;;;;;7.90;92.30;;;;;;5077690;28;19947;-86
2022/02/09 06:39:22;;;;;;;;;;;7.90;92.30;;;;;;5079097;28;19912;-87
2022/02/09 06:41:48;;;;;;;;;;;7.90;92.20;;;;;;5079084;28;20394;-86
2022/02/09 06:44:14;;;;;;;;;;;7.90;92.20;;;;;;5079005;28;19970;-86
2022/02/09 06:46:39;;;;;;;;;;;7.90;92.20;;;;;;5078265;28;19920;-87
2022/02/09 06:49:08;;;;;;;;;;;7.90;92.20;;;;;;5078868;28;19999;-87
2022/02/09 06:51:36;;;;;;;;;;;7.90;92.20;;;;;;5065923;28;19912;-87
2022/02/09 06:54:07;;;;;;;;;;;7.90;92.20;;;;;;5078558;28;19909;-87
2022/02/09 06:56:44;;;;;;;;;;;7.90;92.20;;;;;;5078976;28;19990;-87
2022/02/09 07:01:53;;;;;;;;;;;7.90;92.40;;;;;;5078290;28;19966;-87
2022/02/09 07:04:19;;;;;;;;;;;7.90;92.10;;;;;;5078508;28;19909;-85
2022/02/09 07:06:45;;;;;;;;;;;7.90;92.10;;;;;;5078592;28;19909;-86
2022/02/09 07:09:10;;;;;;;;;;;7.90;92.10;;;;;;5078202;28;19912;-86
2022/02/09 07:11:36;;;;;;;;;;;7.90;92.10;;;;;;5067914;28;19915;-86
2022/02/09 07:14:02;;;;;;;;;;;7.90;92.10;;;;;;5075599;28;19908;-85
2022/02/09 07:16:29;;;;;;;;;;;7.90;92.00;;;;;;5078086;28;19908;-87
2022/02/09 07:18:55;;;;;;;;;;;7.90;92.10;;;;;;5078211;28;20268;-87
2022/02/09 07:21:25;;;;;;;;;;;7.80;92.00;;;;;;5078558;28;19908;-87
2022/02/09 07:23:53;;;;;;;;;;;7.80;92.00;;;;;;5077997;28;19908;-88
2022/02/09 07:26:41;;;;;;;;;;;7.90;92.10;;;;;;5078229;28;19961;-87
2022/02/09 07:29:06;;;;;;;;;;;7.80;92.10;;;;;;5066770;28;19912;-87
2022/02/09 07:31:32;;;;;;;;;;;7.80;92.10;;;;;;5077850;28;19916;-87
2022/02/09 07:33:59;;;;;;;;;;;7.80;92.10;;;;;;5078003;28;19909;-87
2022/02/09 07:36:27;;;;;;;;;;;7.80;92.10;;;;;;5077968;28;21223;-88
2022/02/09 07:38:53;;;;;;;;;;;7.80;92.10;;;;;;5078147;28;19908;-87
2022/02/09 07:41:18;;;;;;;;;;;7.80;92.10;;;;;;5077245;28;19922;-87
2022/02/09 07:43:58;;;;;;;;;;;7.80;92.10;;;;;;5077954;28;19942;-86
2022/02/09 07:47:01;;;;;;;;;;;7.80;92.10;;;;;;5077330;28;19995;-84
2022/02/09 07:50:17;;;;;;;;;;;7.80;92.10;;;;;;5077742;28;19912;-87
2022/02/09 07:52:23;;;;;;;;;;;7.80;92.10;;;;;;5074550;28;19908;-86
2022/02/09 07:54:49;;;;;;;;;;;7.80;92.10;;;;;;5076986;28;19915;-87
2022/02/09 07:57:15;;;;;;;;;;;7.80;92.10;;;;;;5077733;28;19974;-86
2022/02/09 07:59:41;;;;;;;;;;;7.80;92.00;;;;;;5078013;28;19912;-86
2022/02/09 08:02:06;;;;;;;;;;;7.80;92.00;;;;;;5077330;28;19958;-86
2022/02/09 08:04:32;;;;;;;;;;;7.80;92.00;;;;;;5076548;28;20326;-86
2022/02/09 08:06:58;;;;;;;;;;;7.80;91.90;;;;;;5077638;28;19908;-86
2022/02/09 08:09:31;;;;;;;;;;;7.80;91.90;;;;;;5077794;28;19912;-86
2022/02/09 08:12:27;;;;;;;;;;;7.80;91.90;;;;;;5077180;28;19931;-86
2022/02/09 08:28:21;;;;;;;;;;;7.80;91.90;;;;;;5057719;28;19909;-86
2022/02/09 08:31:00;;;;;;;;;;;7.80;91.90;;;;;;5057447;28;20336;-86
2022/02/09 08:33:26;;;;;;;;;;;7.80;91.90;;;;;;5068979;28;19951;-86
2022/02/09 08:35:52;;;;;;;;;;;7.80;91.90;;;;;;5057566;28;19917;-85
2022/02/09 08:38:18;;;;;;;;;;;7.80;92.00;;;;;;5057485;28;19909;-85
2022/02/09 08:40:44;;;;;;;;;;;7.80;92.00;;;;;;5057331;28;19909;-85
2022/02/09 08:43:11;;;;;;;;;;;7.90;92.00;;;;;;5057018;28;19925;-85
2022/02/09 08:45:38;;;;;;;;;;;7.90;91.90;;;;;;5057214;28;20386;-85
2022/02/09 08:48:04;;;;;;;;;;;7.90;92.10;;;;;;5057357;28;19940;-85
2022/02/09 08:50:29;;;;;;;;;;;7.90;91.80;;;;;;5057142;28;19912;-85
2022/02/09 08:52:55;;;;;;;;;;;7.90;91.80;;;;;;5058570;28;19972;-86
2022/02/09 08:55:21;;;;;;;;;;;7.90;91.80;;;;;;5061021;28;19951;-86
2022/02/09 08:57:47;;;;;;;;;;;8.00;91.90;;;;;;5059586;28;19955;-85
2022/02/09 09:00:21;;;;;;;;;;;8.00;91.90;;;;;;5061093;28;20003;-85
2022/02/09 09:02:51;;;;;;;;;;;8.00;91.80;;;;;;5060709;28;19909;-85
2022/02/09 09:05:24;;;;;;;;;;;8.00;91.70;;;;;;5061171;28;19909;-86
2022/02/09 09:07:56;;;;;;;;;;;8.00;91.70;;;;;;5061008;28;19919;-85
2022/02/09 09:10:39;;;;;;;;;;;8.00;91.70;;;;;;5059490;28;19913;-85
2022/02/09 09:18:57;;;;;;;;;;;8.10;91.60;;;;;;5066577;28;20271;-86
2022/02/09 10:02:27;;;;;;;;;;;8.40;91.20;;;;;;5079418;28;19934;-85
2022/02/09 10:32:39;;;;;;;;;;;8.50;91.00;;;;;;5078880;28;19978;-87
2022/02/09 10:35:07;;;;;;;;;;;8.50;91.00;;;;;;5062318;28;20440;-87
2022/02/09 10:37:33;;;;;;;;;;;8.50;91.00;;;;;;5059220;28;20333;-86
2022/02/09 10:40:03;;;;;;;;;;;8.60;91.10;;;;;;5058983;28;19991;-86
2022/02/09 10:42:36;;;;;;;;;;;8.60;91.40;;;;;;5057710;28;20253;-86
2022/02/09 10:45:07;;;;;;;;;;;8.70;91.30;;;;;;5058726;28;19956;-86
2022/02/09 10:47:34;;;;;;;;;;;8.70;91.30;;;;;;5058792;28;19915;-86
2022/02/09 10:50:07;;;;;;;;;;;8.70;91.00;;;;;;5058707;28;19917;-86
2022/02/09 10:52:39;;;;;;;;;;;8.80;91.00;;;;;;5058754;28;19915;-86
2022/02/09 10:55:05;;;;;;;;;;;8.80;90.90;;;;;;5065822;28;20379;-86
2022/02/09 10:57:30;;;;;;;;;;;8.80;90.80;;;;;;5078676;28;19934;-86
2022/02/09 10:59:56;;;;;;;;;;;8.80;90.70;;;;;;5079016;28;19908;-87
2022/02/09 11:02:25;;;;;;;;;;;8.80;90.80;;;;;;5078194;28;19908;-86
2022/02/09 11:04:52;;;;;;;;;;;8.80;90.80;;;;;;5077338;28;20275;-86
2022/02/09 11:07:17;;;;;;;;;;;8.80;90.80;;;;;;5078498;28;20371;-86
2022/02/09 11:09:43;;;;;;;;;;;8.80;90.80;;;;;;5078372;28;19912;-86
2022/02/09 11:12:09;;;;;;;;;;;8.80;90.80;;;;;;5075401;28;20337;-86
2022/02/09 11:14:34;;;;;;;;;;;8.90;90.80;;;;;;5058394;28;20425;-87
2022/02/09 11:17:03;;;;;;;;;;;8.90;90.60;;;;;;5057357;28;20007;-87
2022/02/09 11:19:35;;;;;;;;;;;8.90;90.30;;;;;;5063362;28;20367;-86
2022/02/09 11:22:04;;;;;;;;;;;8.80;90.30;;;;;;5058319;28;19939;-87
2022/02/09 11:24:31;;;;;;;;;;;8.90;90.30;;;;;;5058225;28;20242;-87
2022/02/09 11:27:14;;;;;;;;;;;8.80;90.10;;;;;;5058187;28;19916;-87
2022/02/09 11:29:59;;;;;;;;;;;8.90;90.20;;;;;;5058182;28;19913;-86
2022/02/09 11:32:40;;;;;;;;;;;8.90;90.30;;;;;;5066196;28;20283;-87
2022/02/09 11:35:18;;;;;;;;;;;8.90;90.50;;;;;;5060745;28;19954;-87
2022/02/09 11:38:09;;;;;;;;;;;9.00;90.60;;;;;;5058490;28;19913;-86
2022/02/09 11:43:33;;;;;;;;;;;9.00;90.60;;;;;;5077919;28;20387;-86
2022/02/09 11:46:29;;;;;;;;;;;9.10;90.60;;;;;;5076366;28;19909;-86
2022/02/09 12:00:12;;;;;;;;;;;9.10;90.30;;;;;;5058013;28;19909;-86
2022/02/09 12:11:03;;;;;;;;;;;9.10;90.00;;;;;;5077652;28;20023;-86
2022/02/09 12:13:53;;;;;;;;;;;9.10;90.00;;;;;;5064994;28;19917;-86
2022/02/09 12:17:13;;;;;;;;;;;9.10;90.00;;;;;;5065163;28;19983;-86
2022/02/09 12:19:43;;;;;;;;;;;9.20;90.00;;;;;;5068319;28;19909;-86
2022/02/09 12:22:15;;;;;;;;;;;9.20;89.50;;;;;;5057473;28;19931;-86
2022/02/09 12:24:42;;;;;;;;;;;9.20;89.60;;;;;;5057583;28;20430;-86
2022/02/09 12:27:12;;;;;;;;;;;9.20;89.50;;;;;;5057596;28;19913;-86
2022/02/09 12:29:39;;;;;;;;;;;9.20;89.20;;;;;;5061433;28;19962;-86
2022/02/09 12:32:14;;;;;;;;;;;9.20;89.10;;;;;;5064507;28;20260;-86
2022/02/09 12:34:43;;;;;;;;;;;9.30;89.60;;;;;;5068542;28;20332;-86
2022/02/09 12:37:15;;;;;;;;;;;9.30;89.70;;;;;;5061592;28;19909;-86
2022/02/09 12:39:48;;;;;;;;;;;9.30;90.00;;;;;;5061206;28;20001;-86
2022/02/09 12:42:14;;;;;;;;;;;9.40;90.00;;;;;;5060198;28;19968;-86
2022/02/09 12:44:40;;;;;;;;;;;9.50;90.10;;;;;;5061149;28;20015;-86
2022/02/09 12:47:06;;;;;;;;;;;9.60;90.20;;;;;;5059740;28;19960;-86
2022/02/09 12:49:32;;;;;;;;;;;9.60;90.20;;;;;;5061417;28;19944;-86
2022/02/09 12:51:58;;;;;;;;;;;9.70;90.30;;;;;;5061390;28;19959;-86
2022/02/09 12:54:23;;;;;;;;;;;9.70;90.10;;;;;;5060784;28;19909;-86
2022/02/09 12:56:51;;;;;;;;;;;9.70;90.10;;;;;;5061119;28;19913;-86
2022/02/09 12:59:18;;;;;;;;;;;9.70;90.10;;;;;;5061304;28;19970;-86
2022/02/09 13:01:48;;;;;;;;;;;9.80;90.00;;;;;;5059384;28;19955;-86
2022/02/09 13:04:27;;;;;;;;;;;9.80;88.90;;;;;;5060936;28;19912;-86
2022/02/09 13:06:53;;;;;;;;;;;9.80;89.30;;;;;;5060934;28;19931;-86
2022/02/09 13:09:18;;;;;;;;;;;9.80;89.40;;;;;;5060558;28;20468;-86
2022/02/09 13:11:44;;;;;;;;;;;9.80;89.40;;;;;;5072415;28;20002;-86
2022/02/09 13:14:24;;;;;;;;;;;9.80;88.90;;;;;;5062689;28;19913;-86
2022/02/09 13:26:20;;;;;;;;;;;9.90;88.50;;;;;;5080637;28;19909;-86
2022/02/09 14:12:50;;;;;;;;;;;9.70;87.40;;;;;;5075304;28;19976;-86
2022/02/09 14:18:08;;;;;;;;;;;9.70;88.30;;;;;;5060747;28;19909;-86
2022/02/09 14:32:37;;;;;;;;;;;9.70;87.80;;;;;;5058912;28;20422;-86
2022/02/09 14:53:32;;;;;;;;;;;9.50;87.40;;;;;;5078893;28;19915;-86
2022/02/09 14:58:26;;;;;;;;;;;9.50;87.80;;;;;;5079058;28;19982;-86
2022/02/09 15:01:07;;;;;;;;;;;9.50;88.70;;;;;;5078306;28;20367;-87
2022/02/09 15:08:34;;;;;;;;;;;9.50;88.10;;;;;;5078831;28;19912;-87
2022/02/09 15:11:09;;;;;;;;;;;9.50;88.20;;;;;;5078254;28;19909;-86
2022/02/09 15:16:09;;;;;;;;;;;9.40;87.80;;;;;;5058796;28;19956;-86
2022/02/09 15:23:50;;;;;;;;;;;9.40;88.30;;;;;;5060944;28;19916;-84
2022/02/09 15:26:17;;;;;;;;;;;9.50;88.30;;;;;;5078274;28;19909;-85
2022/02/09 15:28:43;;;;;;;;;;;9.50;87.80;;;;;;5078045;28;19908;-85
2022/02/09 15:33:41;;;;;;;;;;;9.50;88.00;;;;;;5073410;28;20015;-86
2022/02/09 15:36:11;;;;;;;;;;;9.50;88.50;;;;;;5058486;28;19958;-86
2022/02/09 15:38:45;;;;;;;;;;;9.50;88.60;;;;;;5057978;28;20399;-86
2022/02/09 15:41:36;;;;;;;;;;;9.50;88.70;;;;;;5058108;28;20273;-86
2022/02/09 15:56:16;;;;;;;;;;;9.50;88.40;;;;;;5057994;28;19927;-86
2022/02/09 16:05:59;;;;;;;;;;;9.10;87.50;;;;;;5077871;28;19915;-86
2022/02/09 16:09:13;;;;;;;;;;;9.10;87.80;;;;;;5076471;28;19909;-86
2022/02/09 16:21:48;;;;;;;;;;;9.00;88.00;;;;;;5057631;28;19913;-86
2022/02/09 16:24:43;;;;;;;;;;;9.00;87.90;;;;;;5057584;28;19908;-85
2022/02/09 16:38:13;;;;;;;;;;;8.80;88.00;;;;;;5057364;28;19955;-86
2022/02/09 16:46:17;;;;;;;;;;;8.80;88.20;;;;;;5057234;28;19951;-85
2022/02/09 16:51:41;;;;;;;;;;;8.70;88.10;;;;;;5062350;28;19909;-85
2022/02/09 16:54:28;;;;;;;;;;;8.70;88.20;;;;;;5075805;28;19916;-86
2022/02/09 17:21:14;;;;;;;;;;;8.20;88.90;;;;;;5060660;28;19916;-85
2022/02/09 17:23:40;;;;;;;;;;;8.10;89.00;;;;;;5059251;28;19964;-85
2022/02/09 17:26:06;;;;;;;;;;;8.10;89.20;;;;;;5060434;28;19917;-85
2022/02/09 17:28:31;;;;;;;;;;;8.10;89.30;;;;;;5060361;28;19909;-85
2022/02/09 17:37:16;;;;;;;;;;;8.10;89.70;;;;;;5060707;28;20371;-85
2022/02/09 17:58:27;;;;;;;;;;;7.90;90.00;;;;;;5079988;28;19919;-85
2022/02/09 18:00:53;;;;;;;;;;;7.90;90.00;;;;;;5079576;28;19908;-85
2022/02/09 18:03:19;;;;;;;;;;;7.90;90.00;;;;;;5080021;28;19951;-85
2022/02/09 18:05:53;;;;;;;;;;;7.90;90.10;;;;;;5079731;28;19958;-84
2022/02/09 18:08:48;;;;;;;;;;;7.90;90.10;;;;;;5080003;28;19971;-84
2022/02/09 18:11:26;;;;;;;;;;;7.90;90.10;;;;;;5080008;28;19912;-84
2022/02/09 18:39:02;;;;;;;;;;;7.80;90.30;;;;;;5059182;28;20327;-85
2022/02/09 18:43:59;;;;;;;;;;;7.90;90.40;;;;;;5059353;28;20368;-85
2022/02/09 18:56:58;;;;;;;;;;;7.80;90.50;;;;;;5065961;28;19931;-85
2022/02/09 19:04:34;;;;;;;;;;;7.90;90.60;;;;;;5078470;28;19908;-85
2022/02/09 19:18:00;;;;;;;;;;;7.90;90.50;;;;;;5058615;28;19916;-85
2022/02/09 19:29:44;;;;;;;;;;;7.80;90.50;;;;;;5060371;28;19995;-84
2022/02/09 19:32:17;;;;;;;;;;;7.90;90.50;;;;;;5074858;28;19952;-85
2022/02/09 19:47:55;;;;;;;;;;;7.90;90.50;;;;;;5067884;28;19912;-84
2022/02/09 19:50:44;;;;;;;;;;;7.90;90.50;;;;;;5078118;28;19965;-84
2022/02/09 19:55:52;;;;;;;;;;;7.80;90.40;;;;;;5078045;28;19956;-84
2022/02/09 19:58:22;;;;;;;;;;;7.80;90.40;;;;;;5078080;28;20504;-86
2022/02/09 20:00:48;;;;;;;;;;;7.80;90.40;;;;;;5077471;28;19909;-84
2022/02/09 20:03:14;;;;;;;;;;;7.80;90.40;;;;;;5076528;28;19915;-84
2022/02/09 20:05:40;;;;;;;;;;;7.80;90.40;;;;;;5077844;28;19916;-85
2022/02/09 20:08:07;;;;;;;;;;;7.80;90.50;;;;;;5078130;28;19908;-84
2022/02/09 20:10:33;;;;;;;;;;;7.80;90.50;;;;;;5077465;28;19919;-84
2022/02/09 20:12:58;;;;;;;;;;;7.70;90.50;;;;;;5069199;28;19909;-84
2022/02/09 20:15:25;;;;;;;;;;;7.80;90.60;;;;;;5057433;28;20360;-84
2022/02/09 20:17:52;;;;;;;;;;;7.70;90.50;;;;;;5058824;28;19916;-84
2022/02/09 20:20:26;;;;;;;;;;;7.70;90.50;;;;;;5062597;28;19909;-86
2022/02/09 20:22:54;;;;;;;;;;;7.70;90.50;;;;;;5056589;28;19989;-85
2022/02/09 20:25:21;;;;;;;;;;;7.70;90.50;;;;;;5057589;28;19909;-84
2022/02/09 20:27:48;;;;;;;;;;;7.70;90.50;;;;;;5057663;28;20283;-84
2022/02/09 20:30:17;;;;;;;;;;;7.70;90.60;;;;;;5057113;28;19913;-85
2022/02/09 20:32:49;;;;;;;;;;;7.70;90.60;;;;;;5066635;28;19955;-85
2022/02/09 20:35:16;;;;;;;;;;;7.70;90.60;;;;;;5059076;28;19959;-85
2022/02/09 20:37:46;;;;;;;;;;;7.70;90.70;;;;;;5057588;28;20335;-84
2022/02/09 20:40:19;;;;;;;;;;;7.70;90.70;;;;;;5057520;28;19909;-85
2022/02/09 20:42:59;;;;;;;;;;;7.70;90.70;;;;;;5057433;28;19948;-84
2022/02/09 20:47:58;;;;;;;;;;;7.70;90.80;;;;;;5078673;28;19935;-84
2022/02/09 20:50:25;;;;;;;;;;;7.70;90.70;;;;;;5079866;28;19912;-84
2022/02/09 20:52:50;;;;;;;;;;;7.70;90.70;;;;;;5081222;28;20430;-85
2022/02/09 20:55:16;;;;;;;;;;;7.70;90.70;;;;;;5081370;28;19908;-85
2022/02/09 20:57:42;;;;;;;;;;;7.70;90.50;;;;;;5079727;28;19909;-86
2022/02/09 21:00:12;;;;;;;;;;;7.70;90.50;;;;;;5080920;28;20330;-85
2022/02/09 21:02:49;;;;;;;;;;;7.70;90.50;;;;;;5081226;28;19908;-85
2022/02/09 21:05:35;;;;;;;;;;;7.70;90.50;;;;;;5079894;28;19909;-85
2022/02/09 21:43:34;;;;;;;;;;;7.70;90.70;;;;;;5067193;28;20007;-83
2022/02/09 21:55:49;;;;;;;;;;;7.60;90.70;;;;;;5079945;28;19908;-85
2022/02/09 21:58:32;;;;;;;;;;;7.60;90.70;;;;;;5073328;28;20392;-84
2022/02/09 22:01:34;;;;;;;;;;;7.70;90.80;;;;;;5058742;28;20318;-84
2022/02/09 22:20:36;;;;;;;;;;;7.70;90.90;;;;;;5059578;28;19973;-84
2022/02/09 22:28:35;;;;;;;;;;;7.70;90.90;;;;;;5079633;28;19950;-84
2022/02/09 22:50:27;;;;;;;;;;;7.60;91.20;;;;;;5058858;28;19924;-86
2022/02/09 22:55:42;;;;;;;;;;;7.60;91.30;;;;;;5058780;28;19962;-86
2022/02/09 22:58:10;;;;;;;;;;;7.50;91.30;;;;;;5058939;28;19908;-85
2022/02/09 23:03:23;;;;;;;;;;;7.60;91.40;;;;;;5058720;28;19944;-87
2022/02/09 23:06:07;;;;;;;;;;;7.60;91.40;;;;;;5074876;28;21412;-87
2022/02/09 23:13:51;;;;;;;;;;;7.60;91.40;;;;;;5065836;28;19909;-85
2022/02/09 23:16:46;;;;;;;;;;;7.60;91.30;;;;;;5067438;28;19987;-85
2022/02/09 23:20:06;;;;;;;;;;;7.60;91.30;;;;;;5072431;28;19909;-85
2022/02/09 23:22:42;;;;;;;;;;;7.60;91.20;;;;;;5058316;28;19913;-85
